createdAt,value
2019-02-12T00:01:06.404Z,0.93
2019-02-12T00:03:35.143Z,0.80
2019-02-12T00:06:03.853Z,0.85
2019-02-12T00:08:32.542Z,1.00
2019-02-12T00:11:01.260Z,0.73
2019-02-12T00:13:30.010Z,1.10
2019-02-12T00:15:58.668Z,1.00
2019-02-12T00:18:27.340Z,0.80
2019-02-12T00:20:55.980Z,0.90
2019-02-12T00:23:24.662Z,0.60
2019-02-12T00:25:53.373Z,0.70
2019-02-12T00:28:22.054Z,0.90
2019-02-12T00:30:53.255Z,0.70
2019-02-12T00:33:22.045Z,0.90
2019-02-12T00:35:50.766Z,0.85
2019-02-12T00:38:19.498Z,0.90
2019-02-12T00:40:48.147Z,0.70
2019-02-12T00:43:16.843Z,0.80
2019-02-12T00:45:45.587Z,1.32
2019-02-12T00:48:14.254Z,1.10
2019-02-12T00:50:42.908Z,1.07
2019-02-12T00:53:12.749Z,0.90
2019-02-12T00:55:41.471Z,1.10
2019-02-12T00:58:10.111Z,0.88
2019-02-12T01:00:38.831Z,0.80
2019-02-12T01:03:07.560Z,1.10
2019-02-12T01:05:39.314Z,0.80
2019-02-12T01:08:07.990Z,0.83
2019-02-12T01:10:36.647Z,1.05
2019-02-12T01:13:05.338Z,1.17
2019-02-12T01:15:34.040Z,0.82
2019-02-12T01:18:02.711Z,1.12
2019-02-12T01:20:31.448Z,0.70
2019-02-12T01:23:00.146Z,0.88
2019-02-12T01:25:28.830Z,1.23
2019-02-12T01:27:57.480Z,1.05
2019-02-12T01:30:26.220Z,0.82
2019-02-12T01:32:54.931Z,0.98
2019-02-12T01:35:23.589Z,1.12
2019-02-12T01:37:52.263Z,0.85
2019-02-12T01:40:20.976Z,0.85
2019-02-12T01:42:49.668Z,0.80
2019-02-12T01:45:18.310Z,0.80
2019-02-12T01:47:46.998Z,0.75
2019-02-12T01:50:15.662Z,1.00
2019-02-12T01:52:45.508Z,0.55
2019-02-12T01:55:14.157Z,0.70
2019-02-12T01:57:42.875Z,0.60
2019-02-12T02:00:12.632Z,0.70
2019-02-12T02:02:41.603Z,0.82
2019-02-12T02:05:10.376Z,0.80
2019-02-12T02:07:39.116Z,0.93
2019-02-12T02:10:08.747Z,0.40
2019-02-12T02:12:37.414Z,1.00
2019-02-12T02:15:06.995Z,0.80
2019-02-12T02:17:35.698Z,0.78
2019-02-12T02:20:04.798Z,1.00
2019-02-12T02:22:33.536Z,0.70
2019-02-12T02:25:02.211Z,0.80
2019-02-12T02:27:30.867Z,0.82
2019-02-12T02:29:59.530Z,0.77
2019-02-12T02:32:28.283Z,0.80
2019-02-12T02:34:56.955Z,0.50
2019-02-12T02:37:25.649Z,0.57
2019-02-12T02:39:54.330Z,0.65
2019-02-12T02:42:23.028Z,0.75
2019-02-12T02:44:51.692Z,0.95
2019-02-12T02:47:20.349Z,0.70
2019-02-12T02:49:49.100Z,0.60
2019-02-12T02:52:17.810Z,0.70
2019-02-12T02:54:46.411Z,0.70
2019-02-12T02:57:15.084Z,0.70
2019-02-12T02:59:43.781Z,0.90
2019-02-12T03:02:12.449Z,0.65
2019-02-12T03:04:41.140Z,0.72
2019-02-12T03:07:09.825Z,0.80
2019-02-12T03:09:38.787Z,0.47
2019-02-12T03:12:07.470Z,0.70
2019-02-12T03:14:36.167Z,0.55
2019-02-12T03:17:04.867Z,0.82
2019-02-12T03:19:33.635Z,0.80
2019-02-12T03:22:03.905Z,0.50
2019-02-12T03:24:32.816Z,0.90
2019-02-12T03:27:01.483Z,0.82
2019-02-12T03:29:30.143Z,0.70
2019-02-12T03:31:58.835Z,0.75
2019-02-12T03:34:27.487Z,0.70
2019-02-12T03:36:56.169Z,0.90
2019-02-12T03:39:24.818Z,0.70
2019-02-12T03:41:53.488Z,0.65
2019-02-12T03:44:22.233Z,0.75
2019-02-12T03:46:50.901Z,0.77
2019-02-12T03:49:19.565Z,0.70
2019-02-12T03:51:48.223Z,0.80
2019-02-12T03:54:16.960Z,0.70
2019-02-12T03:56:45.627Z,0.80
2019-02-12T03:59:14.365Z,0.77
2019-02-12T04:01:43.105Z,0.55
2019-02-12T04:04:11.938Z,0.63
2019-02-12T04:06:40.591Z,0.57
2019-02-12T04:09:09.326Z,0.62
2019-02-12T04:11:38.052Z,1.27
2019-02-12T04:14:06.688Z,0.80
2019-02-12T04:16:35.345Z,0.80
2019-02-12T04:19:04.005Z,0.70
2019-02-12T04:21:32.733Z,0.53
2019-02-12T04:24:01.462Z,0.50
2019-02-12T04:26:30.127Z,0.57
2019-02-12T04:29:01.645Z,0.95
2019-02-12T04:31:30.326Z,0.78
2019-02-12T04:33:58.995Z,0.78
2019-02-12T04:36:27.661Z,0.88
2019-02-12T04:38:56.302Z,0.75
2019-02-12T04:41:24.975Z,0.70
2019-02-12T04:43:53.634Z,0.80
2019-02-12T04:46:22.379Z,0.65
2019-02-12T04:48:51.213Z,0.70
2019-02-12T04:51:19.903Z,0.80
2019-02-12T04:53:48.536Z,0.88
2019-02-12T04:56:17.241Z,0.65
2019-02-12T04:58:45.953Z,0.90
2019-02-12T05:01:14.652Z,1.07
2019-02-12T05:03:43.409Z,0.90
2019-02-12T05:06:12.128Z,1.00
2019-02-12T05:09:03.793Z,0.93
2019-02-12T05:11:32.772Z,0.77
2019-02-12T05:14:01.965Z,0.90
2019-02-12T05:16:30.655Z,0.60
2019-02-12T05:18:59.379Z,0.90
2019-02-12T05:21:28.035Z,0.80
2019-02-12T05:23:56.685Z,0.60
2019-02-12T05:26:25.456Z,0.73
2019-02-12T05:28:54.221Z,1.05
2019-02-12T05:31:22.942Z,1.07
2019-02-12T05:33:51.662Z,1.00
2019-02-12T05:36:20.393Z,0.70
2019-02-12T05:38:49.070Z,1.03
2019-02-12T05:41:17.726Z,0.77
2019-02-12T05:43:46.367Z,1.00
2019-02-12T05:46:15.046Z,1.00
2019-02-12T05:48:43.758Z,0.88
2019-02-12T05:51:12.603Z,0.85
2019-02-12T05:53:41.311Z,0.88
2019-02-12T05:56:10.036Z,0.98
2019-02-12T05:58:38.723Z,1.10
2019-02-12T06:01:07.406Z,0.77
2019-02-12T06:03:36.249Z,1.22
2019-02-12T06:06:04.896Z,1.00
2019-02-12T06:08:33.667Z,1.47
2019-02-12T06:11:02.390Z,1.20
2019-02-12T06:13:31.106Z,1.27
2019-02-12T06:15:59.988Z,1.15
2019-02-12T06:18:28.721Z,1.30
2019-02-12T06:20:57.349Z,1.07
2019-02-12T06:23:26.042Z,1.02
2019-02-12T06:25:54.771Z,0.95
2019-02-12T06:28:23.489Z,0.90
2019-02-12T06:30:52.180Z,0.90
2019-02-12T06:33:20.878Z,1.20
2019-02-12T06:35:49.710Z,1.17
2019-02-12T06:38:18.523Z,1.10
2019-02-12T06:40:47.175Z,1.10
2019-02-12T06:43:15.831Z,1.05
2019-02-12T06:45:44.689Z,1.12
2019-02-12T06:48:13.487Z,1.45
2019-02-12T06:50:42.251Z,1.20
2019-02-12T06:53:12.814Z,1.27
2019-02-12T06:55:41.351Z,1.17
2019-02-12T06:58:11.025Z,1.00
2019-02-12T07:00:39.909Z,1.42
2019-02-12T07:03:09.255Z,1.05
2019-02-12T07:05:38.684Z,1.60
2019-02-12T07:08:28.863Z,1.37
2019-02-12T07:10:58.434Z,1.25
2019-02-12T07:13:32.414Z,1.05
2019-02-12T07:16:35.246Z,1.35
2019-02-12T07:19:32.296Z,1.32
2019-02-12T07:22:14.122Z,1.20
2019-02-12T07:25:07.889Z,1.25
2019-02-12T07:27:49.617Z,1.27
2019-02-12T07:30:24.589Z,1.02
2019-02-12T07:33:13.294Z,1.50
2019-02-12T07:35:59.142Z,1.45
2019-02-12T07:38:41.430Z,1.40
2019-02-12T07:41:37.502Z,0.90
2019-02-12T07:44:21.435Z,1.10
2019-02-12T07:47:09.874Z,1.50
2019-02-12T07:49:47.031Z,1.20
2019-02-12T07:52:22.884Z,1.30
2019-02-12T07:55:29.252Z,1.52
2019-02-12T07:58:19.886Z,1.20
2019-02-12T08:00:59.875Z,1.20
2019-02-12T08:03:53.486Z,1.20
2019-02-12T08:06:50.272Z,1.20
2019-02-12T08:09:41.027Z,1.00
2019-02-12T08:12:45.404Z,1.22
2019-02-12T08:15:39.065Z,1.30
2019-02-12T08:18:11.086Z,1.17
2019-02-12T08:20:57.775Z,1.20
2019-02-12T08:23:45.755Z,1.00
2019-02-12T08:26:28.267Z,1.32
2019-02-12T08:29:19.134Z,1.20
2019-02-12T08:31:57.343Z,1.22
2019-02-12T08:34:45.260Z,1.37
2019-02-12T08:37:33.724Z,1.07
2019-02-12T08:40:27.641Z,1.37
2019-02-12T08:43:21.398Z,1.20
2019-02-12T08:46:09.298Z,1.00
2019-02-12T08:49:12.488Z,1.27
2019-02-12T08:51:54.485Z,1.10
2019-02-12T08:54:51.454Z,1.27
2019-02-12T08:57:28.969Z,1.10
2019-02-12T09:00:07.131Z,1.10
2019-02-12T09:02:52.058Z,1.05
2019-02-12T09:05:49.126Z,1.00
2019-02-12T09:08:39.809Z,1.47
2019-02-12T09:11:26.393Z,1.50
2019-02-12T09:14:14.217Z,1.25
2019-02-12T09:16:54.454Z,1.20
2019-02-12T09:19:31.581Z,1.20
2019-02-12T09:22:28.731Z,1.05
2019-02-12T09:25:16.603Z,1.20
2019-02-12T09:28:04.461Z,1.20
2019-02-12T09:30:52.257Z,1.20
2019-02-12T09:33:26.686Z,1.10
2019-02-12T09:36:17.722Z,1.27
2019-02-12T09:38:56.339Z,1.10
2019-02-12T09:41:27.986Z,1.35
2019-02-12T09:44:16.094Z,1.20
2019-02-12T09:46:59.832Z,0.90
2019-02-12T09:49:53.800Z,1.40
2019-02-12T09:52:40.518Z,1.50
2019-02-12T09:55:12.785Z,1.43
2019-02-12T09:58:01.719Z,1.22
2019-02-12T10:00:42.046Z,1.40
2019-02-12T10:03:19.092Z,1.40
2019-02-12T10:06:00.789Z,1.37
2019-02-12T10:08:44.375Z,1.00
2019-02-12T10:11:23.098Z,1.30
2019-02-12T10:14:13.779Z,1.53
2019-02-12T10:16:50.167Z,1.42
2019-02-12T10:19:30.574Z,1.30
2019-02-12T10:22:04.225Z,1.40
2019-02-12T10:24:50.656Z,1.62
2019-02-12T10:27:37.070Z,1.60
2019-02-12T10:30:15.446Z,1.20
2019-02-12T10:32:44.272Z,1.10
2019-02-12T10:35:13.154Z,1.10
2019-02-12T10:37:41.801Z,1.42
2019-02-12T10:40:10.532Z,1.40
2019-02-12T10:42:39.259Z,1.37
2019-02-12T10:45:08.659Z,1.72
2019-02-12T10:47:37.326Z,1.20
2019-02-12T10:50:05.993Z,1.30
2019-02-12T10:52:34.837Z,1.20
2019-02-12T10:55:03.699Z,1.35
2019-02-12T10:57:32.365Z,1.10
2019-02-12T11:00:01.156Z,1.47
2019-02-12T11:02:30.002Z,1.40
2019-02-12T11:04:58.672Z,1.55
2019-02-12T11:07:27.309Z,1.32
2019-02-12T11:09:56.054Z,1.33
2019-02-12T11:12:24.820Z,1.47
2019-02-12T11:14:53.567Z,1.37
2019-02-12T11:17:22.245Z,1.90
2019-02-12T11:19:51.026Z,1.22
2019-02-12T11:22:19.730Z,1.10
2019-02-12T11:24:48.582Z,1.65
2019-02-12T11:27:17.329Z,1.42
2019-02-12T11:29:46.102Z,1.12
2019-02-12T11:32:14.850Z,1.40
2019-02-12T11:34:44.613Z,1.12
2019-02-12T11:37:13.287Z,1.30
2019-02-12T11:39:42.008Z,1.40
2019-02-12T11:42:10.770Z,1.20
2019-02-12T11:44:39.461Z,0.85
2019-02-12T11:47:08.148Z,1.45
2019-02-12T11:49:36.822Z,1.10
2019-02-12T11:52:13.434Z,0.97
2019-02-12T11:54:43.742Z,1.02
2019-02-12T11:57:12.685Z,0.80
2019-02-12T11:59:41.419Z,1.20
2019-02-12T12:02:10.087Z,0.88
2019-02-12T12:04:38.752Z,1.00
2019-02-12T12:07:07.516Z,1.32
2019-02-12T12:09:36.148Z,1.32
2019-02-12T12:12:04.846Z,1.20
2019-02-12T12:14:33.522Z,1.30
2019-02-12T12:17:02.174Z,1.10
2019-02-12T12:19:30.832Z,0.80
2019-02-12T12:21:59.504Z,0.70
2019-02-12T12:24:28.177Z,1.07
2019-02-12T12:26:56.911Z,0.80
2019-02-12T12:29:25.631Z,0.80
2019-02-12T12:31:54.280Z,1.20
2019-02-12T12:34:23.140Z,1.15
2019-02-12T12:36:51.836Z,1.30
2019-02-12T12:39:20.572Z,1.35
2019-02-12T12:41:49.360Z,0.88
2019-02-12T12:44:18.163Z,0.78
2019-02-12T12:46:46.864Z,0.80
2019-02-12T12:49:15.574Z,0.90
2019-02-12T12:51:44.255Z,1.10
2019-02-12T12:54:13.020Z,1.15
2019-02-12T12:56:41.683Z,0.93
2019-02-12T12:59:10.525Z,0.93
2019-02-12T13:01:40.374Z,1.03
2019-02-12T13:04:09.092Z,1.15
2019-02-12T13:06:37.802Z,1.35
2019-02-12T13:09:06.649Z,1.15
2019-02-12T13:11:35.363Z,0.98
2019-02-12T13:14:05.479Z,1.20
2019-02-12T13:16:34.146Z,0.80
2019-02-12T13:19:02.990Z,0.82
2019-02-12T13:21:31.658Z,1.07
2019-02-12T13:24:00.340Z,1.02
2019-02-12T13:26:29.033Z,0.80
2019-02-12T13:28:57.805Z,0.88
2019-02-12T13:31:26.537Z,1.25
2019-02-12T13:33:55.266Z,0.72
2019-02-12T13:36:23.957Z,0.90
2019-02-12T13:38:52.633Z,0.62
2019-02-12T13:41:21.283Z,0.70
2019-02-12T13:43:50.030Z,0.68
2019-02-12T13:46:18.742Z,0.60
2019-02-12T13:48:47.449Z,0.60
2019-02-12T13:51:16.140Z,0.60
2019-02-12T13:53:44.895Z,0.85
2019-02-12T13:56:13.588Z,0.75
2019-02-12T13:58:42.338Z,0.93
2019-02-12T14:01:11.068Z,0.60
2019-02-12T14:03:39.792Z,0.80
2019-02-12T14:06:08.659Z,0.80
2019-02-12T14:08:37.422Z,0.60
2019-02-12T14:11:06.202Z,0.90
2019-02-12T14:13:34.860Z,0.65
2019-02-12T14:16:03.595Z,0.68
2019-02-12T14:18:32.323Z,0.70
2019-02-12T14:21:01.020Z,0.72
2019-02-12T14:23:29.782Z,0.90
2019-02-12T14:25:58.500Z,0.60
2019-02-12T14:28:27.204Z,1.00
2019-02-12T14:30:55.954Z,0.70
2019-02-12T14:33:24.754Z,0.93
2019-02-12T14:35:53.458Z,0.78
2019-02-12T14:38:22.136Z,1.02
2019-02-12T14:40:50.794Z,0.78
2019-02-12T14:43:19.465Z,0.88
2019-02-12T14:45:48.134Z,1.07
2019-02-12T14:48:17.363Z,0.90
2019-02-12T14:50:46.153Z,0.82
2019-02-12T14:53:14.924Z,1.05
2019-02-12T14:55:43.643Z,1.00
2019-02-12T14:58:12.412Z,1.20
2019-02-12T15:00:41.292Z,1.10
2019-02-12T15:03:09.970Z,1.17
2019-02-12T15:05:38.731Z,0.80
2019-02-12T15:08:07.488Z,0.80
2019-02-12T15:10:36.124Z,1.00
2019-02-12T15:13:04.868Z,0.85
2019-02-12T15:15:33.634Z,0.80
2019-02-12T15:18:02.300Z,1.07
2019-02-12T15:20:31.069Z,0.98
2019-02-12T15:22:59.800Z,1.17
2019-02-12T15:25:28.484Z,1.00
2019-02-12T15:27:57.340Z,1.10
2019-02-12T15:30:26.072Z,1.10
2019-02-12T15:32:54.727Z,0.78
2019-02-12T15:35:23.523Z,0.95
2019-02-12T15:37:52.226Z,1.02
2019-02-12T15:40:20.938Z,0.80
2019-02-12T15:42:49.675Z,0.95
2019-02-12T15:45:18.743Z,0.75
2019-02-12T15:47:47.542Z,1.05
2019-02-12T15:50:16.268Z,1.12
2019-02-12T15:52:45.162Z,1.10
2019-02-12T15:55:13.920Z,0.90
2019-02-12T15:57:45.618Z,1.20
2019-02-12T16:00:15.657Z,0.88
2019-02-12T16:02:45.967Z,1.17
2019-02-12T16:05:14.700Z,0.90
2019-02-12T16:07:45.197Z,0.80
2019-02-12T16:10:16.979Z,1.00
2019-02-12T16:12:46.597Z,1.82
2019-02-12T16:15:16.596Z,3.72
2019-02-12T16:17:45.388Z,1.35
2019-02-12T16:20:14.066Z,1.50
2019-02-12T16:22:44.087Z,1.55
2019-02-12T16:25:12.773Z,1.22
2019-02-12T16:27:41.477Z,1.10
2019-02-12T16:30:11.552Z,1.17
2019-02-12T16:32:40.309Z,1.20
2019-02-12T16:35:10.451Z,1.20
2019-02-12T16:37:39.199Z,1.20
2019-02-12T16:40:08.381Z,1.42
2019-02-12T16:42:37.123Z,1.27
2019-02-12T16:45:07.308Z,1.50
2019-02-12T16:47:36.317Z,1.10
2019-02-12T16:50:05.020Z,1.30
2019-02-12T16:52:37.120Z,1.32
2019-02-12T16:55:06.224Z,1.40
2019-02-12T16:57:34.957Z,1.10
2019-02-12T17:00:04.586Z,1.20
2019-02-12T17:02:34.268Z,1.25
2019-02-12T17:05:03.012Z,1.20
2019-02-12T17:07:31.826Z,1.20
2019-02-12T17:10:01.595Z,1.35
2019-02-12T17:12:31.232Z,1.22
2019-02-12T17:15:00.016Z,1.10
2019-02-12T17:17:28.817Z,1.27
2019-02-12T17:19:57.528Z,1.52
2019-02-12T17:22:27.249Z,1.20
2019-02-12T17:24:55.933Z,1.40
2019-02-12T17:27:24.707Z,1.10
2019-02-12T17:29:53.438Z,1.47
2019-02-12T17:32:22.178Z,1.45
2019-02-12T17:34:50.906Z,1.22
2019-02-12T17:37:19.600Z,1.60
2019-02-12T17:39:49.313Z,1.30
2019-02-12T17:42:17.966Z,1.20
2019-02-12T17:44:46.732Z,1.37
2019-02-12T17:47:15.441Z,1.62
2019-02-12T17:49:44.201Z,1.90
2019-02-12T17:52:12.881Z,1.47
2019-02-12T17:54:41.704Z,1.35
2019-02-12T17:57:10.554Z,1.82
2019-02-12T17:59:39.360Z,1.50
2019-02-12T18:02:08.210Z,1.55
2019-02-12T18:04:37.053Z,1.80
2019-02-12T18:07:05.839Z,1.35
2019-02-12T18:09:34.530Z,1.60
2019-02-12T18:12:03.194Z,1.65
2019-02-12T18:14:31.906Z,1.53
2019-02-12T18:17:00.655Z,1.40
2019-02-12T18:19:29.406Z,1.75
2019-02-12T18:21:58.075Z,2.05
2019-02-12T18:24:26.784Z,2.15
2019-02-12T18:26:55.636Z,1.90
2019-02-12T18:29:24.299Z,2.00
2019-02-12T18:31:53.002Z,2.02
2019-02-12T18:34:21.696Z,2.10
2019-02-12T18:36:50.662Z,2.40
2019-02-12T18:39:19.377Z,2.40
2019-02-12T18:41:48.204Z,2.47
2019-02-12T18:44:17.051Z,2.08
2019-02-12T18:46:46.152Z,2.58
2019-02-12T18:49:15.578Z,1.98
2019-02-12T18:51:44.351Z,2.70
2019-02-12T18:54:13.093Z,2.67
2019-02-12T18:56:41.982Z,2.55
2019-02-12T18:59:10.779Z,4.78
2019-02-12T19:01:39.526Z,5.47
2019-02-12T19:04:11.348Z,6.67
2019-02-12T19:06:40.020Z,10.35
2019-02-12T19:09:12.462Z,8.90
2019-02-12T19:11:52.689Z,3.72
2019-02-12T19:14:13.082Z,4.20
2019-02-12T19:16:41.818Z,4.60
2019-02-12T19:19:10.580Z,5.33
2019-02-12T19:21:39.445Z,4.45
2019-02-12T19:24:08.219Z,5.45
2019-02-12T19:26:36.958Z,4.10
2019-02-12T19:29:05.697Z,23.25
2019-02-12T19:31:34.691Z,34.20
2019-02-12T19:34:03.487Z,51.10
2019-02-12T19:36:32.272Z,8.95
2019-02-12T19:39:01.169Z,4.80
2019-02-12T19:41:31.115Z,4.03
2019-02-12T19:43:59.909Z,4.25
2019-02-12T19:46:28.666Z,4.75
2019-02-12T19:48:57.424Z,4.65
2019-02-12T19:51:26.329Z,5.08
2019-02-12T19:53:55.783Z,4.70
2019-02-12T19:56:24.817Z,4.50
2019-02-12T19:58:53.541Z,5.62
2019-02-12T20:01:22.315Z,5.05
2019-02-12T20:03:51.037Z,6.33
2019-02-12T20:06:19.779Z,6.08
2019-02-12T20:08:48.531Z,6.00
2019-02-12T20:11:17.431Z,6.47
2019-02-12T20:13:46.263Z,6.03
2019-02-12T20:16:15.052Z,6.50
2019-02-12T20:18:43.770Z,7.20
2019-02-12T20:21:13.160Z,6.50
2019-02-12T20:23:42.073Z,5.90
2019-02-12T20:26:10.872Z,5.83
2019-02-12T20:28:39.933Z,6.00
2019-02-12T20:31:08.855Z,6.42
2019-02-12T20:33:37.692Z,6.15
2019-02-12T20:36:06.452Z,6.17
2019-02-12T20:38:35.442Z,6.17
2019-02-12T20:41:04.201Z,6.17
2019-02-12T20:43:32.957Z,6.47
2019-02-12T20:46:01.772Z,6.80
2019-02-12T20:48:30.656Z,7.33
2019-02-12T20:50:59.428Z,6.50
2019-02-12T20:53:28.132Z,6.70
2019-02-12T20:55:56.915Z,6.08
2019-02-12T20:58:25.711Z,6.53
2019-02-12T21:00:54.431Z,6.58
2019-02-12T21:03:23.167Z,6.25
2019-02-12T21:05:51.926Z,6.85
2019-02-12T21:08:20.632Z,6.42
2019-02-12T21:10:49.363Z,6.20
2019-02-12T21:13:18.648Z,6.83
2019-02-12T21:15:47.328Z,6.58
2019-02-12T21:18:16.096Z,6.70
2019-02-12T21:20:45.521Z,6.92
2019-02-12T21:23:15.459Z,7.27
2019-02-12T21:25:44.199Z,7.12
2019-02-12T21:28:12.943Z,7.12
2019-02-12T21:30:41.771Z,7.10
2019-02-12T21:33:10.814Z,6.97
2019-02-12T21:35:39.513Z,7.15
2019-02-12T21:38:11.645Z,7.07
2019-02-12T21:40:40.393Z,6.60
2019-02-12T21:43:09.078Z,6.80
2019-02-12T21:45:39.663Z,6.80
2019-02-12T21:48:08.712Z,6.93
2019-02-12T21:50:37.482Z,6.25
2019-02-12T21:53:06.400Z,6.97
2019-02-12T21:55:35.168Z,7.08
2019-02-12T21:58:03.892Z,6.30
2019-02-12T22:00:32.682Z,6.67
2019-02-12T22:03:01.426Z,6.90
2019-02-12T22:05:30.502Z,6.47
2019-02-12T22:07:59.209Z,6.55
2019-02-12T22:10:27.907Z,6.70
2019-02-12T22:12:56.667Z,6.08
2019-02-12T22:15:25.482Z,6.42
2019-02-12T22:17:54.218Z,7.33
2019-02-12T22:20:23.112Z,6.70
2019-02-12T22:22:51.991Z,6.35
2019-02-12T22:25:21.411Z,6.50
2019-02-12T22:27:50.303Z,6.25
2019-02-12T22:30:19.452Z,6.33
2019-02-12T22:32:48.273Z,7.22
2019-02-12T22:35:17.071Z,7.17
2019-02-12T22:37:45.804Z,6.90
2019-02-12T22:40:14.811Z,7.55
2019-02-12T22:42:43.522Z,7.30
2019-02-12T22:45:13.428Z,7.95
2019-02-12T22:47:42.332Z,7.42
2019-02-12T22:50:11.092Z,7.87
2019-02-12T22:52:39.864Z,7.42
2019-02-12T22:55:08.720Z,8.38
2019-02-12T22:57:37.458Z,7.78
2019-02-12T23:00:11.505Z,7.65
2019-02-12T23:02:40.345Z,7.53
2019-02-12T23:05:09.039Z,7.80
2019-02-12T23:07:37.767Z,7.83
2019-02-12T23:10:06.719Z,7.87
2019-02-12T23:12:35.453Z,8.13
2019-02-12T23:15:07.480Z,7.85
2019-02-12T23:17:36.315Z,8.65
2019-02-12T23:20:05.155Z,7.83
2019-02-12T23:22:34.001Z,8.10
2019-02-12T23:25:02.685Z,8.38
2019-02-12T23:27:31.485Z,7.37
2019-02-12T23:30:00.398Z,8.48
2019-02-12T23:32:29.097Z,8.18
2019-02-12T23:34:57.802Z,8.33
2019-02-12T23:37:26.705Z,8.10
2019-02-12T23:39:55.590Z,8.23
2019-02-12T23:42:24.417Z,8.33
2019-02-12T23:44:53.157Z,9.25
2019-02-12T23:47:21.886Z,8.05
2019-02-12T23:49:50.623Z,8.28
2019-02-12T23:52:19.358Z,7.90
2019-02-12T23:54:48.119Z,8.40
2019-02-12T23:57:16.882Z,8.33
2019-02-12T23:59:45.542Z,7.90
